Time;durP1;ratioP1;P1;durP2;ratioP2;P2;SDS_P1;SDS_P2;PMS_P1;PMS_P2;Temp;Humidity;BMP_temperature;BMP_pressure;BME280_temperature;BME280_humidity;BME280_pressure;Samples;Min_cycle;Max_cycle;Signal;HPM_P1;HPM_P2
2022/01/17 06:48:43;;;;;;;9.63;4.43;;;;;;;;;;10543967;28;20110;-82
2022/01/17 06:54:09;;;;;;;9.55;4.72;;;;;;;;;;10541845;28;20036;-82
2022/01/17 06:59:13;;;;;;;7.05;3.90;;;;;;;;;;10525713;28;20110;-82
2022/01/17 07:04:20;;;;;;;8.15;4.50;;;;;;;;;;10542602;28;20028;-82
2022/01/17 07:09:21;;;;;;;11.23;5.65;;;;;;;;;;10531675;28;20047;-83
2022/01/17 07:14:22;;;;;;;9.00;4.68;;;;;;;;;;10524722;28;20035;-83
2022/01/17 07:19:24;;;;;;;9.07;5.18;;;;;;;;;;10523781;28;20034;-83
2022/01/17 07:24:25;;;;;;;;;;;;;;;;;;10522162;28;20131;-83
2022/01/17 07:29:26;;;;;;;13.10;7.97;;;;;;;;;;10523121;28;19983;-82
2022/01/17 07:34:32;;;;;;;10.43;5.90;;;;;;;;;;10542714;28;20028;-83
2022/01/17 07:39:33;;;;;;;10.25;6.32;;;;;;;;;;10522682;28;20020;-83
2022/01/17 07:44:40;;;;;;;12.15;6.88;;;;;;;;;;10521318;28;20040;-82
2022/01/17 07:49:42;;;;;;;8.82;5.95;;;;;;;;;;10521553;28;20026;-82
2022/01/17 07:54:47;;;;;;;13.35;7.20;;;;;;;;;;10521833;28;20427;-82
2022/01/17 07:59:55;;;;;;;12.65;7.72;;;;;;;;;;10512478;28;20032;-82
2022/01/17 08:05:15;;;;;;;9.25;4.90;;;;;;;;;;10493151;28;20100;-82
2022/01/17 08:10:16;;;;;;;9.20;5.43;;;;;;;;;;10494633;28;20028;-82
2022/01/17 08:15:19;;;;;;;16.98;9.50;;;;;;;;;;10493713;28;20082;-83
2022/01/17 08:20:20;;;;;;;11.05;7.07;;;;;;;;;;10509514;28;20063;-82
2022/01/17 08:25:21;;;;;;;14.30;10.43;;;;;;;;;;10492143;28;20412;-82
2022/01/17 08:30:23;;;;;;;10.18;6.13;;;;;;;;;;10494431;28;20073;-83
2022/01/17 08:35:41;;;;;;;12.57;9.15;;;;;;;;;;10493102;28;20032;-82
2022/01/17 08:40:46;;;;;;;11.73;8.32;;;;;;;;;;10494354;28;20032;-82
2022/01/17 08:45:49;;;;;;;21.52;14.98;;;;;;;;;;10494163;28;20478;-82
2022/01/17 08:51:01;;;;;;;21.40;15.43;;;;;;;;;;10506339;28;20067;-81
2022/01/17 08:56:03;;;;;;;21.73;15.25;;;;;;;;;;10503179;28;20024;-79
2022/01/17 09:01:04;;;;;;;23.02;16.70;;;;;;;;;;10520516;28;20475;-82
2022/01/17 09:06:10;;;;;;;;;;;;;;;;;;10504754;28;20032;-82
2022/01/17 09:11:12;;;;;;;20.17;14.10;;;;;;;;;;10492243;28;19911;-81
2022/01/17 09:16:13;;;;;;;25.42;16.35;;;;;;;;;;10491941;28;20036;-83
2022/01/17 09:21:14;;;;;;;17.50;13.43;;;;;;;;;;10500193;28;20040;-80
2022/01/17 09:26:15;;;;;;;;;;;;;;;;;;10491840;28;20116;-80
2022/01/17 09:31:16;;;;;;;18.20;12.32;;;;;;;;;;10491526;28;19911;-80
2022/01/17 09:36:18;;;;;;;24.73;16.10;;;;;;;;;;10496851;28;20055;-83
2022/01/17 09:41:19;;;;;;;23.60;16.50;;;;;;;;;;10505894;28;20139;-79
2022/01/17 09:46:24;;;;;;;22.88;14.55;;;;;;;;;;10514137;28;20036;-78
2022/01/17 09:56:56;;;;;;;24.55;15.43;;;;;;;;;;10484095;28;20031;-79
2022/01/17 10:02:00;;;;;;;18.73;12.20;;;;;;;;;;10497596;28;20088;-80
2022/01/17 10:07:01;;;;;;;24.77;16.27;;;;;;;;;;10490465;28;20044;-81
2022/01/17 10:12:03;;;;;;;28.33;15.75;;;;;;;;;;10496438;28;20021;-81
2022/01/17 10:17:06;;;;;;;20.52;13.50;;;;;;;;;;10496843;28;20461;-80
2022/01/17 10:22:15;;;;;;;18.88;11.80;;;;;;;;;;10499134;28;20059;-81
2022/01/17 10:38:20;;;;;;;14.50;11.57;;;;;;;;;;10512879;28;20037;-81
2022/01/17 10:43:21;;;;;;;16.83;11.43;;;;;;;;;;10494794;28;20028;-82
2022/01/17 10:48:49;;;;;;;17.30;11.93;;;;;;;;;;10495920;28;20435;-81
2022/01/17 10:53:57;;;;;;;13.00;9.52;;;;;;;;;;10514268;28;20108;-81
2022/01/17 10:59:19;;;;;;;18.80;12.27;;;;;;;;;;10490774;28;20055;-83
2022/01/17 11:04:34;;;;;;;20.85;11.35;;;;;;;;;;10450584;28;20024;-82
2022/01/17 11:09:40;;;;;;;17.67;10.73;;;;;;;;;;10500806;28;20021;-80
2022/01/17 11:15:00;;;;;;;19.08;11.98;;;;;;;;;;10510776;28;20074;-83
2022/01/17 11:20:29;;;;;;;16.08;10.00;;;;;;;;;;10492192;28;20119;-84
2022/01/17 11:30:41;;;;;;;18.88;10.70;;;;;;;;;;10275241;23;20063;-81
2022/01/17 11:35:45;;;;;;;;;;;;;;;;;;10244971;28;20042;-80
2022/01/17 11:41:06;;;;;;;18.13;10.93;;;;;;;;;;10229935;29;19911;-82
2022/01/17 11:46:45;;;;;;;18.38;10.50;;;;;;;;;;10108289;29;20037;-81
2022/01/17 11:51:49;;;;;;;22.80;13.90;;;;;;;;;;10145319;29;20046;-81
2022/01/17 11:56:52;;;;;;;17.83;10.82;;;;;;;;;;10223467;29;20035;-80
2022/01/17 12:02:13;;;;;;;23.70;12.43;;;;;;;;;;10228745;29;20150;-80
2022/01/17 12:07:21;;;;;;;20.13;11.70;;;;;;;;;;10229677;29;20482;-81
2022/01/17 12:12:23;;;;;;;19.90;9.80;;;;;;;;;;10227088;29;20094;-80
2022/01/17 12:17:31;;;;;;;;;;;;;;;;;;10232323;29;20041;-80
2022/01/17 12:22:53;;;;;;;18.42;9.20;;;;;;;;;;10225235;29;19911;-81
2022/01/17 12:28:32;;;;;;;19.58;8.05;;;;;;;;;;10181862;29;20510;-80
2022/01/17 12:33:42;;;;;;;17.25;7.13;;;;;;;;;;10222860;29;20042;-80
2022/01/17 12:38:51;;;;;;;19.52;9.55;;;;;;;;;;10226318;29;20090;-79
2022/01/17 12:43:53;;;;;;;16.25;7.68;;;;;;;;;;10223303;29;20031;-81
2022/01/17 12:49:03;;;;;;;19.27;8.00;;;;;;;;;;10221923;29;20043;-79
2022/01/17 12:54:11;;;;;;;17.25;7.22;;;;;;;;;;10222731;29;20038;-80
2022/01/17 12:59:34;;;;;;;16.35;7.22;;;;;;;;;;10207892;29;20063;-80
2022/01/17 13:04:57;;;;;;;15.65;6.40;;;;;;;;;;10223536;29;20036;-80
2022/01/17 13:10:01;;;;;;;20.10;7.10;;;;;;;;;;10224654;29;20051;-79
2022/01/17 13:15:07;;;;;;;19.95;6.15;;;;;;;;;;10220303;29;20517;-81
2022/01/17 13:20:10;;;;;;;15.18;6.28;;;;;;;;;;10207813;29;20388;-81
2022/01/17 13:25:19;;;;;;;20.92;8.27;;;;;;;;;;10225153;29;20035;-81
2022/01/17 13:30:23;;;;;;;15.98;6.32;;;;;;;;;;10223498;29;20165;-81
2022/01/17 13:41:26;;;;;;;88.65;48.42;;;;;;;;;;10224314;29;20027;-81
2022/01/17 13:46:30;;;;;;;24.98;9.05;;;;;;;;;;10222284;29;20087;-82
2022/01/17 13:51:47;;;;;;;64.85;33.55;;;;;;;;;;10223153;29;20454;-80
2022/01/17 13:56:48;;;;;;;21.17;8.02;;;;;;;;;;10218884;29;20194;-80
2022/01/17 14:01:49;;;;;;;23.27;8.27;;;;;;;;;;10228419;29;20071;-81
2022/01/17 14:06:53;;;;;;;;;;;;;;;;;;10221844;29;20039;-81
2022/01/17 14:12:32;;;;;;;18.13;7.40;;;;;;;;;;10225883;29;19906;-81
2022/01/17 14:17:39;;;;;;;24.98;9.88;;;;;;;;;;10222199;29;20035;-81
2022/01/17 14:22:55;;;;;;;18.70;5.35;;;;;;;;;;10222084;29;20061;-81
2022/01/17 14:28:26;;;;;;;16.98;5.70;;;;;;;;;;10226092;29;20387;-82
2022/01/17 14:33:28;;;;;;;17.40;5.20;;;;;;;;;;10255046;23;20073;-82
2022/01/17 14:38:29;;;;;;;16.40;5.75;;;;;;;;;;10291990;28;20114;-82
2022/01/17 14:43:32;;;;;;;18.02;4.50;;;;;;;;;;10293495;28;20512;-82
2022/01/17 14:48:36;;;;;;;20.67;5.60;;;;;;;;;;10324548;28;20430;-80
2022/01/17 14:53:38;;;;;;;19.27;5.25;;;;;;;;;;10300699;28;20043;-82
2022/01/17 15:04:03;;;;;;;16.83;4.57;;;;;;;;;;10311412;28;20027;-82
2022/01/17 15:09:04;;;;;;;32.75;19.15;;;;;;;;;;10314692;28;20484;-82
2022/01/17 15:14:06;;;;;;;18.98;5.93;;;;;;;;;;10298923;28;20045;-83
2022/01/17 15:19:07;;;;;;;18.23;5.28;;;;;;;;;;10298533;28;20035;-82
2022/01/17 15:24:09;;;;;;;21.60;6.68;;;;;;;;;;10297850;28;20027;-82
2022/01/17 15:29:14;;;;;;;21.13;4.75;;;;;;;;;;10297932;28;20041;-82
2022/01/17 15:34:15;;;;;;;17.15;5.15;;;;;;;;;;10298010;28;20097;-82
2022/01/17 15:39:17;;;;;;;17.30;4.65;;;;;;;;;;10298348;28;20095;-83
2022/01/17 15:44:19;;;;;;;17.42;4.38;;;;;;;;;;10305404;28;20031;-81
2022/01/17 15:49:20;;;;;;;22.00;5.88;;;;;;;;;;10308659;28;20066;-81
2022/01/17 15:54:21;;;;;;;16.77;4.13;;;;;;;;;;10307125;28;20030;-81
2022/01/17 15:59:22;;;;;;;;;;;;;;;;;;10304702;28;20062;-81
2022/01/17 16:04:23;;;;;;;17.42;4.28;;;;;;;;;;10303315;28;19997;-82
2022/01/17 16:09:24;;;;;;;20.00;5.20;;;;;;;;;;10304979;28;20035;-82
2022/01/17 16:14:27;;;;;;;13.73;4.15;;;;;;;;;;10317058;28;20476;-83
2022/01/17 16:19:29;;;;;;;19.55;4.97;;;;;;;;;;10321392;28;20034;-81
2022/01/17 16:24:30;;;;;;;17.95;4.57;;;;;;;;;;10320289;28;20015;-82
2022/01/17 16:29:31;;;;;;;18.08;4.43;;;;;;;;;;10318681;28;20111;-82
2022/01/17 16:34:32;;;;;;;20.80;5.75;;;;;;;;;;10303644;28;20151;-82
2022/01/17 16:39:33;;;;;;;18.77;5.40;;;;;;;;;;10301076;28;20168;-83
2022/01/17 16:44:35;;;;;;;11.85;4.43;;;;;;;;;;10307741;28;20528;-82
2022/01/17 16:49:36;;;;;;;12.65;3.90;;;;;;;;;;10304763;28;20031;-82
2022/01/17 16:54:37;;;;;;;14.05;3.95;;;;;;;;;;10301691;28;20035;-82
2022/01/17 16:59:38;;;;;;;9.82;2.90;;;;;;;;;;10303223;28;20038;-83
2022/01/17 17:04:39;;;;;;;8.38;3.10;;;;;;;;;;10313008;28;20026;-82
2022/01/17 17:09:40;;;;;;;;;;;;;;;;;;10327378;28;20053;-82
2022/01/17 17:14:41;;;;;;;11.05;3.22;;;;;;;;;;10301534;28;19977;-82
2022/01/17 17:19:42;;;;;;;8.65;2.85;;;;;;;;;;10318058;28;20083;-83
2022/01/17 17:24:43;;;;;;;;;;;;;;;;;;10301809;28;20039;-82
2022/01/17 17:29:43;;;;;;;10.50;3.60;;;;;;;;;;10300699;28;19906;-81
2022/01/17 17:34:45;;;;;;;;;;;;;;;;;;10301753;28;20054;-81
2022/01/17 17:39:47;;;;;;;10.00;2.90;;;;;;;;;;10302257;28;19906;-82
2022/01/17 17:44:48;;;;;;;8.45;2.83;;;;;;;;;;10300429;28;20027;-82
2022/01/17 17:49:49;;;;;;;16.83;4.22;;;;;;;;;;10301339;28;20030;-82
2022/01/17 17:54:50;;;;;;;;;;;;;;;;;;10301270;28;20062;-81
2022/01/17 17:59:51;;;;;;;10.77;2.92;;;;;;;;;;10301362;28;19965;-82
2022/01/17 18:04:52;;;;;;;;;;;;;;;;;;10302787;28;20073;-80
2022/01/17 18:09:53;;;;;;;9.95;3.15;;;;;;;;;;10303986;28;19965;-81
2022/01/17 18:14:54;;;;;;;;;;;;;;;;;;10334885;28;20026;-82
2022/01/17 18:19:55;;;;;;;12.98;3.60;;;;;;;;;;10324125;28;19911;-82
2022/01/17 18:24:56;;;;;;;;;;;;;;;;;;10301942;28;20097;-82
2022/01/17 18:29:57;;;;;;;7.28;2.72;;;;;;;;;;10301641;28;19936;-83
2022/01/17 18:35:01;;;;;;;10.57;3.13;;;;;;;;;;10298959;28;20089;-82
2022/01/17 18:40:04;;;;;;;7.40;2.33;;;;;;;;;;10315788;28;20019;-82
2022/01/17 18:45:05;;;;;;;9.30;2.58;;;;;;;;;;10323260;28;20038;-82
2022/01/17 18:50:07;;;;;;;7.03;2.40;;;;;;;;;;10302666;28;20035;-82
2022/01/17 18:55:10;;;;;;;10.60;3.00;;;;;;;;;;10300777;28;20098;-81
2022/01/17 19:00:11;;;;;;;9.63;3.25;;;;;;;;;;10300184;28;20066;-82
2022/01/17 19:05:13;;;;;;;10.25;2.97;;;;;;;;;;10315895;28;20057;-82
2022/01/17 19:10:14;;;;;;;5.53;2.20;;;;;;;;;;10298170;28;20023;-82
2022/01/17 19:15:15;;;;;;;;;;;;;;;;;;10314515;28;20392;-82
2022/01/17 19:20:27;;;;;;;8.65;2.63;;;;;;;;;;10298909;28;19996;-82
2022/01/17 19:25:29;;;;;;;10.25;2.78;;;;;;;;;;10298602;28;20027;-82
2022/01/17 19:30:30;;;;;;;13.85;3.97;;;;;;;;;;10314904;28;20041;-82
2022/01/17 19:35:32;;;;;;;;;;;;;;;;;;10297853;28;20129;-82
2022/01/17 19:40:34;;;;;;;6.97;2.63;;;;;;;;;;10296991;28;19906;-82
2022/01/17 19:45:35;;;;;;;11.35;3.50;;;;;;;;;;10297327;28;20505;-83
2022/01/17 19:50:36;;;;;;;;;;;;;;;;;;10298382;28;20026;-83
2022/01/17 19:55:37;;;;;;;9.00;4.95;;;;;;;;;;10303204;28;20287;-82
2022/01/17 20:00:38;;;;;;;10.70;5.15;;;;;;;;;;10305269;28;20424;-82
2022/01/17 20:05:39;;;;;;;;;;;;;;;;;;10305556;28;20051;-82
2022/01/17 20:10:40;;;;;;;9.18;4.90;;;;;;;;;;10305087;28;20000;-82
2022/01/17 20:15:41;;;;;;;13.88;8.32;;;;;;;;;;10304072;28;20054;-81
2022/01/17 20:20:44;;;;;;;18.58;13.88;;;;;;;;;;10306035;28;20413;-82
2022/01/17 20:25:45;;;;;;;20.08;14.63;;;;;;;;;;10303526;28;20118;-82
2022/01/17 20:30:46;;;;;;;21.35;13.30;;;;;;;;;;10302236;28;20037;-83
